CheckWX is a tool to help pilots better visualize weather data.  It is not intended as a substitute for an official pre-flight weather briefing.

04:16:57 UTC

6B9 METAR
Skaneateles Aero Drome Airport
Skaneateles, New York, USA
Current

22 mins ago

K6B9 270355Z AUTO 00000KT 10SM OVC060 21/15 A3011 RMK AO2
Observed
Jun-27 @ 03:55 UTC
Visibility
10 SM
Flight Rules
VFR
Cloud Levels
  • Overcast at 6,000' AGL
Temperature
21°C / 70°F
Dewpoint
15°C / 59°F
Humidity
69%
Altimeter
30.11" Hg
Pressure
1019.62 hPa
Previous

42 mins ago

K6B9 270335Z AUTO 26005KT 10SM BKN055 BKN065 21/14 A3010 RMK AO2
Observed
Jun-27 @ 03:35 UTC
Wind
  • 260° at 5 KTS
Visibility
10 SM
Flight Rules
VFR
Cloud Levels
  • Broken at 5,500' AGL
  • Broken at 6,500' AGL
Temperature
21°C / 70°F
Dewpoint
14°C / 57°F
Humidity
64%
Altimeter
30.1" Hg
Pressure
1019.32 hPa
Previous

1 hour ago

K6B9 270315Z AUTO 25005KT 10SM SCT055 21/15 A3010 RMK AO2
Observed
Jun-27 @ 03:15 UTC
Wind
  • 250° at 5 KTS
Visibility
10 SM
Flight Rules
VFR
Cloud Levels
  • Scattered at 5,500' AGL
Temperature
21°C / 70°F
Dewpoint
15°C / 59°F
Humidity
69%
Altimeter
30.1" Hg
Pressure
1019.32 hPa